METAR Data
IDs: Format: Raw Decoded Include TAF

Data at: 1938 UTC 31 Jul 2021

METAR for:KFME (Fort Meade/Tipton Fl, MD, US)
Text:KFME 311935Z AUTO 21007KT 10SM SCT050 26/15 A2999 RMK AO1
Temperature: 26.0°C ( 79°F)
Dewpoint: 15.0°C ( 59°F) [RH = 51%]
Pressure (altimeter):29.99 inches Hg (1015.7 mb)
Winds:from the SSW (210 degrees) at 8 MPH (7 knots; 3.6 m/s)
Visibility:10 or more sm (16+ km)
Ceiling:at least 12,000 feet AGL
Clouds: scattered clouds at 5000 feet AGL
QC Flag:automated observation with no human augmentation